| time (UTC) | temp F | wind direction | speed MPH | gust MPH | rain 1hr in | rain 24hr in | rain mn in | humidity % | barometer mb |
| 20260906111539 | 71 | 72 | 0.0 | 0.0 | 0.00 | 0.70 | 0.00 | 82 | 1011.5 |
| 20260906110036 | 71 | 72 | 0.0 | 0.0 | 0.00 | 0.70 | 0.00 | 83 | 1011.6 |
| 20260906104539 | 71 | 72 | 0.0 | 0.0 | 0.00 | 0.70 | 0.00 | 83 | 1011.4 |
| 20260906103036 | 71 | 72 | 0.0 | 0.0 | 0.00 | 0.70 | 0.00 | 83 | 1011.1 |
| 20260906101535 | 72 | 72 | 0.0 | 0.0 | 0.00 | 0.70 | 0.00 | 82 | 1011.3 |
| 20260906100038 | 72 | 72 | 0.0 | 0.0 | 0.00 | 0.70 | 0.00 | 82 | 1011.3 |
| 20260906094536 | 72 | 72 | 0.0 | 0.0 | 0.00 | 0.70 | 0.00 | 82 | 1011.3 |
| 20260906093032 | 72 | 72 | 0.0 | 0.0 | 0.00 | 0.70 | 0.00 | 83 | 1011.3 |
| 20260906091534 | 72 | 72 | 0.0 | 0.0 | 0.00 | 0.70 | 0.00 | 83 | 1011.2 |
| 20260906090029 | 72 | 72 | 0.0 | 0.0 | 0.00 | 0.70 | 0.00 | 83 | 1011.3 |
| 20260906084529 | 72 | 72 | 0.0 | 0.0 | 0.00 | 0.70 | 0.00 | 83 | 1011.1 |
| 20260906083027 | 72 | 72 | 0.0 | 0.0 | 0.00 | 0.70 | 0.00 | 84 | 1011.3 |
| 20260906081525 | 72 | 72 | 0.0 | 0.0 | 0.00 | 0.70 | 0.00 | 84 | 1010.9 |
| 20260906080026 | 72 | 72 | 0.0 | 0.0 | 0.00 | 0.70 | 0.00 | 84 | 1011.1 |
| 20260906074527 | 72 | 72 | 0.0 | 0.0 | 0.00 | 0.70 | 0.00 | 84 | 1011.1 |
| 20260906073025 | 72 | 72 | 0.0 | 0.0 | 0.00 | 0.70 | 0.00 | 84 | 1010.9 |
| 20260906071522 | 72 | 72 | 0.0 | 0.0 | 0.00 | 0.70 | 0.00 | 85 | 1011.0 |
| 20260906070018 | 72 | 72 | 0.0 | 0.0 | 0.00 | 0.70 | 0.00 | 85 | 1010.9 |
| 20260906064517 | 73 | 72 | 0.0 | 0.0 | 0.00 | 0.70 | 0.00 | 85 | 1010.9 |
| 20260906063014 | 72 | 66 | 0.0 | 0.0 | 0.00 | 0.70 | 0.00 | 84 | 1011.0 |
| 20260906061512 | 72 | 67 | 0.0 | 0.0 | 0.00 | 0.70 | 0.00 | 84 | 1011.3 |
| 20260906060011 | 72 | 67 | 0.0 | 0.0 | 0.00 | 0.70 | 0.00 | 85 | 1011.4 |
| 20260906054511 | 73 | 67 | 0.0 | 0.0 | 0.00 | 0.70 | 0.00 | 85 | 1011.5 |
| 20260906053005 | 73 | 67 | 0.0 | 0.0 | 0.00 | 0.70 | 0.00 | 86 | 1011.7 |
| 20260906051502 | 73 | 66 | 0.0 | 0.0 | 0.00 | 0.70 | 0.00 | 86 | 1012.1 |
| 20260906050001 | 73 | 67 | 0.0 | 0.0 | 0.00 | 0.70 | 0.00 | 86 | 1011.8 |
| 20260906044600 | 73 | 66 | 0.0 | 0.0 | 0.00 | 0.70 | 0.00 | 87 | 1011.8 |
| 20260906043058 | 74 | 67 | 0.0 | 1.0 | 0.00 | 0.70 | 0.00 | 87 | 1011.6 |
| 20260906041551 | 74 | 67 | 0.0 | 0.0 | 0.00 | 0.70 | 0.00 | 86 | 1011.7 |
| 20260906040047 | 74 | 66 | 0.0 | 1.0 | 0.00 | 0.70 | 0.70 | 86 | 1011.8 |
| 20260906034547 | 74 | 67 | 0.0 | 0.0 | 0.00 | 0.70 | 0.70 | 85 | 1011.9 |
| 20260906033055 | 74 | 66 | 0.0 | 1.0 | 0.00 | 0.70 | 0.70 | 86 | 1011.9 |
| 20260906031546 | 74 | 67 | 0.0 | 0.0 | 0.00 | 0.70 | 0.70 | 85 | 1012.2 |
| 20260906030046 | 73 | 67 | 0.0 | 1.0 | 0.00 | 0.70 | 0.70 | 86 | 1012.3 |
| 20260906024544 | 73 | 67 | 0.0 | 0.0 | 0.00 | 0.70 | 0.70 | 86 | 1012.3 |
| 20260906023042 | 74 | 67 | 0.0 | 0.0 | 0.00 | 0.70 | 0.70 | 86 | 1012.4 |
| 20260906021548 | 74 | 60 | 0.0 | 1.0 | 0.00 | 0.70 | 0.70 | 85 | 1012.5 |
| 20260906020049 | 74 | 61 | 0.0 | 0.0 | 0.00 | 0.70 | 0.70 | 86 | 1012.4 |
| 20260906014550 | 74 | 61 | 0.0 | 0.0 | 0.00 | 0.70 | 0.70 | 86 | 1012.2 |
| 20260906013039 | 75 | 61 | 0.0 | 1.0 | 0.00 | 0.70 | 0.70 | 86 | 1012.3 |
| 20260906011539 | 75 | 60 | 0.0 | 1.0 | 0.00 | 0.70 | 0.70 | 86 | 1012.2 |
| 20260906010038 | 74 | 354 | 0.0 | 1.0 | 0.00 | 0.70 | 0.70 | 86 | 1011.7 |
| 20260906004541 | 74 | 345 | 0.0 | 1.0 | 0.00 | 0.70 | 0.70 | 87 | 1011.8 |
| 20260906003038 | 74 | 129 | 0.0 | 1.0 | 0.00 | 0.70 | 0.70 | 87 | 1011.7 |
| 20260906001536 | 74 | 130 | 0.0 | 1.0 | 0.00 | 0.70 | 0.70 | 88 | 1011.1 |
| 20260906000041 | 74 | 130 | 0.0 | 1.0 | 0.20 | 0.70 | 0.70 | 88 | 1010.5 |
| 20260905234535 | 74 | 134 | 0.0 | 1.0 | 0.43 | 0.70 | 0.70 | 87 | 1009.3 |
| 20260905233040 | 74 | 153 | 0.0 | 0.0 | 0.70 | 0.70 | 0.70 | 88 | 1008.7 |
| 20260905231540 | 74 | 153 | 0.0 | 1.0 | 0.70 | 0.70 | 0.70 | 88 | 1009.4 |
| 20260905230030 | 75 | 152 | 0.0 | 6.0 | 0.49 | 0.49 | 0.49 | 85 | 1011.9 |
| 20260905224529 | 80 | 292 | 1.0 | 7.0 | 0.26 | 0.26 | 0.26 | 80 | 1012.7 |
| 20260905223028 | 91 | 157 | 1.0 | 7.0 | 0.00 | 0.00 | 0.00 | 59 | 1011.4 |
| 20260905221533 | 99 | 127 | 0.0 | 1.0 | 0.00 | 0.00 | 0.00 | 47 | 1009.7 |
| 20260905220026 | 102 | 127 | 0.0 | 1.0 | 0.00 | 0.00 | 0.00 | 42 | 1009.3 |
| 20260905214528 | 104 | 127 | 0.0 | 2.0 | 0.00 | 0.00 | 0.00 | 40 | 1009.3 |
| 20260905213025 | 103 | 127 | 0.0 | 1.0 | 0.00 | 0.00 | 0.00 | 41 | 1009.1 |
| 20260905211530 | 100 | 144 | 0.0 | 1.0 | 0.00 | 0.00 | 0.00 | 44 | 1009.1 |
| 20260905210020 | 99 | 143 | 0.0 | 0.0 | 0.00 | 0.00 | 0.00 | 47 | 1009.5 |
| 20260905204519 | 100 | 143 | 0.0 | 0.0 | 0.00 | 0.00 | 0.00 | 44 | 1009.6 |
| 20260905203018 | 102 | 143 | 0.0 | 1.0 | 0.00 | 0.00 | 0.00 | 43 | 1009.8 |
| 20260905201515 | 102 | 143 | 0.0 | 0.0 | 0.00 | 0.00 | 0.00 | 42 | 1010.0 |
| 20260905200015 | 102 | 144 | 0.0 | 1.0 | 0.00 | 0.00 | 0.00 | 41 | 1010.3 |
| 20260905194511 | 102 | 124 | 0.0 | 2.0 | 0.00 | 0.00 | 0.00 | 43 | 1010.4 |
| 20260905193009 | 100 | 211 | 0.0 | 1.0 | 0.00 | 0.00 | 0.00 | 47 | 1010.4 |
| 20260905191507 | 102 | 146 | 0.0 | 2.0 | 0.00 | 0.00 | 0.00 | 44 | 1010.6 |
| 20260905190005 | 104 | 262 | 0.0 | 1.0 | 0.00 | 0.00 | 0.00 | 42 | 1010.8 |
| 20260905184506 | 103 | 267 | 0.0 | 2.0 | 0.00 | 0.00 | 0.00 | 41 | 1011.1 |
| 20260905183101 | 103 | 68 | 0.0 | 1.0 | 0.00 | 0.00 | 0.00 | 42 | 1011.3 |
| 20260905181554 | 102 | 238 | 0.0 | 2.0 | 0.00 | 0.00 | 0.00 | 44 | 1011.5 |
| 20260905180050 | 100 | 152 | 0.0 | 2.0 | 0.00 | 0.00 | 0.00 | 47 | 1011.5 |
| 20260905174549 | 100 | 288 | 0.0 | 2.0 | 0.00 | 0.00 | 0.00 | 47 | 1011.8 |
| 20260905173046 | 101 | 290 | 0.0 | 1.0 | 0.00 | 0.00 | 0.00 | 46 | 1012.2 |
| 20260905171541 | 101 | 290 | 0.0 | 2.0 | 0.00 | 0.00 | 0.00 | 48 | 1012.1 |
| 20260905170038 | 100 | 155 | 0.0 | 1.0 | 0.00 | 0.00 | 0.00 | 50 | 1012.1 |
| 20260905164533 | 99 | 267 | 0.0 | 3.0 | 0.00 | 0.00 | 0.00 | 50 | 1012.3 |
| 20260905163028 | 98 | 226 | 0.0 | 1.0 | 0.00 | 0.00 | 0.00 | 51 | 1012.3 |
| 20260905161525 | 97 | 291 | 0.0 | 2.0 | 0.00 | 0.00 | 0.00 | 52 | 1012.6 |
| 20260905160027 | 96 | 194 | 0.0 | 1.0 | 0.00 | 0.00 | 0.00 | 53 | 1012.8 |
| 20260905154517 | 94 | 194 | 0.0 | 2.0 | 0.00 | 0.00 | 0.00 | 57 | 1013.2 |
| 20260905153012 | 92 | 228 | 0.0 | 2.0 | 0.00 | 0.00 | 0.00 | 61 | 1013.4 |
| 20260905151508 | 89 | 267 | 0.0 | 1.0 | 0.00 | 0.00 | 0.00 | 64 | 1013.3 |
| 20260905150003 | 88 | 291 | 0.0 | 2.0 | 0.00 | 0.00 | 0.00 | 68 | 1013.4 |
| 20260905144559 | 87 | 262 | 0.0 | 1.0 | 0.00 | 0.00 | 0.00 | 70 | 1013.6 |
| 20260905143056 | 85 | 263 | 0.0 | 1.0 | 0.00 | 0.00 | 0.00 | 72 | 1013.5 |
| 20260905141551 | 84 | 253 | 0.0 | 1.0 | 0.00 | 0.00 | 0.00 | 74 | 1013.5 |
| 20260905140048 | 82 | 236 | 0.0 | 1.0 | 0.00 | 0.00 | 0.00 | 76 | 1013.6 |
| 20260905134548 | 81 | 111 | 0.0 | 0.0 | 0.00 | 0.00 | 0.00 | 78 | 1013.7 |
| 20260905133047 | 80 | 111 | 0.0 | 1.0 | 0.00 | 0.00 | 0.00 | 81 | 1013.9 |
| 20260905131547 | 79 | 112 | 0.0 | 0.0 | 0.00 | 0.00 | 0.00 | 82 | 1013.9 |
| 20260905130046 | 77 | 111 | 0.0 | 0.0 | 0.00 | 0.00 | 0.00 | 84 | 1014.1 |
| 20260905124546 | 76 | 112 | 0.0 | 0.0 | 0.00 | 0.00 | 0.00 | 88 | 1014.0 |
| 20260905123048 | 76 | 111 | 0.0 | 0.0 | 0.00 | 0.00 | 0.00 | 88 | 1014.0 |
| 20260905121544 | 75 | 111 | 0.0 | 0.0 | 0.00 | 0.00 | 0.00 | 88 | 1014.0 |
| 20260905120041 | 75 | 111 | 0.0 | 0.0 | 0.00 | 0.00 | 0.00 | 88 | 1013.7 |
| 20260905114540 | 75 | 111 | 0.0 | 0.0 | 0.00 | 0.00 | 0.00 | 87 | 1013.5 |
| 20260905113038 | 75 | 111 | 0.0 | 0.0 | 0.00 | 0.00 | 0.00 | 87 | 1013.4 |